Time;durP1;ratioP1;P1;durP2;ratioP2;P2;SDS_P1;SDS_P2;PMS_P1;PMS_P2;Temp;Humidity;BMP_temperature;BMP_pressure;BME280_temperature;BME280_humidity;BME280_pressure;Samples;Min_cycle;Max_cycle;Signal;HPM_P1;HPM_P2
2023/07/06 00:00:12;;;;;;;9.20;3.50;;;;;;;15.94;99.66;100401.86;220951;1265;142118;-87
2023/07/06 00:05:13;;;;;;;8.00;3.30;;;;;;;15.88;99.94;100398.98;221663;1265;138831;-87
2023/07/06 00:10:13;;;;;;;8.40;3.90;;;;;;;15.82;100.00;100402.77;221109;1266;140291;-87
2023/07/06 00:15:14;;;;;;;11.20;3.40;;;;;;;15.76;100.00;100407.34;221424;1265;139216;-87
2023/07/06 00:20:14;;;;;;;7.80;3.50;;;;;;;15.67;100.00;100405.53;220964;1266;141383;-87
2023/07/06 00:25:15;;;;;;;7.70;3.30;;;;;;;15.59;100.00;100406.16;221582;1265;139002;-87
2023/07/06 00:30:17;;;;;;;6.30;3.20;;;;;;;15.47;100.00;100409.14;221190;1266;142220;-87
2023/07/06 00:35:19;;;;;;;6.00;3.10;;;;;;;15.37;100.00;100412.80;221384;1265;138965;-87
2023/07/06 00:40:19;;;;;;;6.80;2.70;;;;;;;15.27;100.00;100416.50;221028;1266;140546;-87
2023/07/06 00:45:20;;;;;;;7.00;2.60;;;;;;;15.18;100.00;100415.53;221464;1266;139191;-87
2023/07/06 00:50:23;;;;;;;10.40;3.70;;;;;;;15.10;100.00;100424.53;221397;1266;142013;-87
2023/07/06 00:55:36;;;;;;;6.60;3.30;;;;;;;14.98;100.00;100429.54;221568;1266;139588;-87
2023/07/06 01:00:38;;;;;;;9.30;3.60;;;;;;;14.87;100.00;100432.06;221115;1266;141315;-87
2023/07/06 01:05:40;;;;;;;6.50;2.90;;;;;;;14.77;100.00;100434.51;221664;1266;139323;-87
2023/07/06 01:10:41;;;;;;;9.40;3.60;;;;;;;14.68;100.00;100433.61;221091;1266;140716;-88
2023/07/06 01:15:50;;;;;;;7.50;3.00;;;;;;;14.59;100.00;100432.46;221595;1265;139080;-87
2023/07/06 01:21:02;;;;;;;9.70;3.90;;;;;;;14.47;100.00;100434.76;220817;1265;141480;-87
2023/07/06 01:26:13;;;;;;;10.10;3.30;;;;;;;14.35;100.00;100440.34;221328;1266;139527;-87
2023/07/06 01:31:17;;;;;;;9.40;3.40;;;;;;;14.25;100.00;100442.98;221132;1266;141865;-87
2023/07/06 01:36:39;;;;;;;6.60;3.00;;;;;;;14.18;100.00;100444.89;221635;1265;139168;-87
2023/07/06 01:41:40;;;;;;;7.70;3.20;;;;;;;14.11;100.00;100444.26;220817;1265;141497;-87
2023/07/06 01:46:51;;;;;;;8.80;2.50;;;;;;;14.00;100.00;100445.80;221366;1265;107199;-86
2023/07/06 01:52:03;;;;;;;7.70;3.20;;;;;;;13.91;100.00;100447.71;220787;1265;140173;-86
2023/07/06 01:57:13;;;;;;;7.10;3.00;;;;;;;13.81;100.00;100449.23;221471;1268;138821;-87
2023/07/06 02:02:14;;;;;;;6.70;2.70;;;;;;;13.73;100.00;100458.42;220797;1266;140618;-87
2023/07/06 02:07:16;;;;;;;6.60;2.80;;;;;;;13.68;100.00;100458.58;221550;1266;140637;-87
2023/07/06 02:12:18;;;;;;;19.00;4.70;;;;;;;13.58;100.00;100457.33;221097;1265;141146;-87
2023/07/06 02:17:21;;;;;;;7.30;2.70;;;;;;;13.51;100.00;100461.13;221326;1271;138981;-87
2023/07/06 02:22:25;;;;;;;6.40;2.40;;;;;;;13.44;100.00;100466.02;220975;1266;141344;-87
2023/07/06 02:27:25;;;;;;;8.00;2.50;;;;;;;13.33;100.00;100459.30;221294;1265;138793;-87
2023/07/06 02:32:27;;;;;;;10.50;3.20;;;;;;;13.27;100.00;100467.11;221149;1265;140820;-87
2023/07/06 02:37:28;;;;;;;7.40;3.10;;;;;;;13.20;100.00;100472.88;221593;1266;139744;-87
2023/07/06 02:42:28;;;;;;;9.20;3.10;;;;;;;13.11;100.00;100470.58;221056;1266;140696;-87
2023/07/06 02:47:29;;;;;;;9.20;3.40;;;;;;;13.05;100.00;100480.52;221421;1266;138776;-87
2023/07/06 02:52:30;;;;;;;7.40;2.90;;;;;;;12.98;100.00;100482.55;221425;1266;141676;-87
2023/07/06 02:57:31;;;;;;;9.70;3.20;;;;;;;12.91;100.00;100485.58;221401;1266;139387;-86
2023/07/06 03:02:32;;;;;;;7.60;3.20;;;;;;;12.85;100.00;100488.33;221189;1268;140282;-86
2023/07/06 03:07:35;;;;;;;10.40;3.00;;;;;;;12.79;100.00;100489.73;221597;1268;139249;-85
2023/07/06 03:12:38;;;;;;;8.00;3.20;;;;;;;12.75;100.00;100492.56;220861;1266;140836;-86
2023/07/06 03:17:40;;;;;;;8.90;3.50;;;;;;;12.71;100.00;100503.27;221376;1266;139723;-86
2023/07/06 03:22:45;;;;;;;6.90;2.40;;;;;;;12.69;100.00;100511.00;220827;1266;140767;-85
2023/07/06 03:27:47;;;;;;;8.50;3.10;;;;;;;12.67;100.00;100510.36;222064;1266;139363;-85
2023/07/06 03:32:48;;;;;;;16.30;3.70;;;;;;;12.66;100.00;100513.20;220859;1266;139662;-85
2023/07/06 03:37:48;;;;;;;9.90;3.30;;;;;;;12.67;100.00;100519.83;221141;1266;139259;-84
2023/07/06 03:42:49;;;;;;;10.30;3.70;;;;;;;12.68;100.00;100526.23;220740;1266;140576;-85
2023/07/06 03:47:50;;;;;;;10.50;3.10;;;;;;;12.70;100.00;100533.96;221220;1266;139309;-85
2023/07/06 03:52:51;;;;;;;6.30;2.80;;;;;;;12.72;100.00;100536.89;221177;1266;140532;-85
2023/07/06 03:57:52;;;;;;;6.70;2.70;;;;;;;12.74;100.00;100544.31;221249;1269;140589;-85
2023/07/06 04:02:57;;;;;;;6.20;2.50;;;;;;;12.77;100.00;100548.44;220715;1266;142849;-85
2023/07/06 04:08:10;;;;;;;9.40;3.20;;;;;;;12.81;100.00;100552.31;221146;1265;139263;-85
2023/07/06 04:13:13;;;;;;;9.60;3.40;;;;;;;12.85;100.00;100556.52;220926;1268;140739;-83
2023/07/06 04:18:15;;;;;;;8.30;3.70;;;;;;;12.91;100.00;100554.48;221594;1268;139802;-85
2023/07/06 04:23:16;;;;;;;11.30;4.70;;;;;;;12.97;100.00;100553.42;220814;1265;140565;-85
2023/07/06 04:28:16;;;;;;;7.20;3.30;;;;;;;13.04;100.00;100550.14;222171;1268;97052;-86
2023/07/06 04:33:19;;;;;;;6.90;3.10;;;;;;;13.12;100.00;100546.05;220948;1266;141463;-85
2023/07/06 04:38:21;;;;;;;9.30;3.20;;;;;;;13.22;100.00;100553.11;221466;1265;139111;-85
2023/07/06 04:43:24;;;;;;;12.00;3.90;;;;;;;13.29;100.00;100562.75;221680;1266;140901;-85
2023/07/06 04:48:26;;;;;;;8.80;3.40;;;;;;;13.37;100.00;100564.90;221432;1268;139114;-85
2023/07/06 04:53:26;;;;;;;8.30;3.90;;;;;;;13.47;100.00;100567.21;221082;1266;141737;-84
2023/07/06 04:58:28;;;;;;;8.40;3.50;;;;;;;13.56;100.00;100578.05;221495;1266;107398;-85
2023/07/06 05:03:30;;;;;;;7.00;2.90;;;;;;;13.68;100.00;100580.35;220921;1268;141765;-85
2023/07/06 05:08:34;;;;;;;11.20;3.80;;;;;;;13.83;100.00;100584.08;221427;1266;139276;-85
2023/07/06 05:13:35;;;;;;;10.30;4.00;;;;;;;14.00;100.00;100586.05;221079;1266;141435;-85
2023/07/06 05:18:35;;;;;;;11.50;4.20;;;;;;;14.19;100.00;100582.35;221323;1269;139736;-85
2023/07/06 05:23:36;;;;;;;9.40;3.60;;;;;;;14.46;100.00;100587.21;220753;1269;143870;-85
2023/07/06 05:28:36;;;;;;;8.50;3.90;;;;;;;14.85;100.00;100601.50;221403;1265;97917;-86
2023/07/06 05:33:38;;;;;;;8.60;3.60;;;;;;;15.32;100.00;100602.25;221220;1267;140730;-87
2023/07/06 05:38:39;;;;;;;9.20;3.60;;;;;;;15.83;100.00;100602.27;221458;1269;139000;-86
2023/07/06 05:43:39;;;;;;;6.30;3.10;;;;;;;16.26;100.00;100609.83;220894;1266;141693;-87
2023/07/06 05:48:40;;;;;;;10.50;3.90;;;;;;;16.57;99.87;100615.77;221496;1268;139242;-86
2023/07/06 05:53:40;;;;;;;10.30;3.30;;;;;;;16.81;99.35;100623.11;220784;1268;141154;-87
2023/07/06 05:58:42;;;;;;;7.40;3.30;;;;;;;17.02;96.70;100629.23;221762;1268;97808;-87
2023/07/06 06:03:43;;;;;;;9.00;3.60;;;;;;;17.19;96.47;100636.48;220959;1267;140986;-87
2023/07/06 06:08:43;;;;;;;10.10;3.70;;;;;;;17.38;97.66;100638.31;221635;1266;138471;-87
2023/07/06 06:13:44;;;;;;;9.60;4.00;;;;;;;17.68;98.01;100642.30;220877;1268;140247;-88
2023/07/06 06:18:44;;;;;;;11.70;4.30;;;;;;;18.08;98.37;100646.53;221317;1269;139753;-87
2023/07/06 06:23:45;;;;;;;6.10;2.70;;;;;;;18.53;97.37;100649.63;220445;1266;142888;-87
2023/07/06 06:28:47;;;;;;;7.90;2.90;;;;;;;18.97;91.44;100652.45;221235;1270;106977;-87
2023/07/06 06:33:48;;;;;;;8.90;3.00;;;;;;;19.35;87.05;100648.35;220921;1268;142097;-85
2023/07/06 06:38:48;;;;;;;8.90;3.40;;;;;;;19.78;86.31;100652.03;221299;1266;139295;-86
2023/07/06 06:43:49;;;;;;;8.70;3.30;;;;;;;20.22;85.32;100656.02;221069;1267;140140;-86
2023/07/06 06:48:49;;;;;;;9.00;3.30;;;;;;;20.70;83.02;100655.84;221374;1269;139514;-88
2023/07/06 06:53:53;;;;;;;6.40;2.70;;;;;;;21.07;80.92;100654.92;220828;1269;140919;-88
2023/07/06 06:58:53;;;;;;;8.30;3.30;;;;;;;21.51;79.03;100658.27;220963;1270;139668;-89
2023/07/06 07:03:54;;;;;;;7.40;2.60;;;;;;;21.78;76.37;100658.91;221494;1267;139267;-87
2023/07/06 07:08:54;;;;;;;8.30;2.90;;;;;;;22.18;77.40;100653.14;220865;1267;140633;-88
2023/07/06 07:13:55;;;;;;;8.80;2.50;;;;;;;22.62;75.90;100654.58;221507;1267;139723;-87
2023/07/06 07:18:55;;;;;;;5.00;2.20;;;;;;;23.03;73.78;100649.98;220873;1267;140873;-88
2023/07/06 07:23:56;;;;;;;6.30;2.50;;;;;;;23.39;71.37;100650.73;221274;1267;138880;-87
2023/07/06 07:28:56;;;;;;;6.20;2.50;;;;;;;23.68;68.18;100655.88;221170;1267;139835;-88
2023/07/06 07:33:57;;;;;;;7.60;3.30;;;;;;;23.92;67.32;100660.89;221360;1265;137670;-88
2023/07/06 07:38:57;;;;;;;6.70;2.60;;;;;;;23.97;65.49;100660.08;220831;1267;140689;-89
2023/07/06 07:43:58;;;;;;;8.60;2.40;;;;;;;24.03;64.55;100660.13;221291;1267;137942;-87
2023/07/06 07:49:01;;;;;;;6.60;2.40;;;;;;;24.16;63.64;100660.17;220687;1267;140241;-89
2023/07/06 07:54:01;;;;;;;7.50;2.40;;;;;;;24.40;63.95;100658.70;221423;1267;138289;-90
2023/07/06 07:59:02;;;;;;;11.20;2.80;;;;;;;24.76;61.44;100664.33;220808;1268;141079;-87
2023/07/06 08:04:02;;;;;;;8.90;2.40;;;;;;;25.00;60.91;100673.56;221223;1269;97802;-89
2023/07/06 08:09:06;;;;;;;7.20;2.70;;;;;;;25.40;61.45;100674.34;220647;1267;140350;-88
2023/07/06 08:14:08;;;;;;;5.70;2.20;;;;;;;26.06;58.32;100681.09;221314;1266;138357;-90
2023/07/06 08:19:09;;;;;;;5.70;2.60;;;;;;;26.38;55.86;100676.30;220787;1267;139480;-90
2023/07/06 08:24:10;;;;;;;5.60;2.50;;;;;;;26.93;57.56;100679.39;221200;1267;138341;-89
2023/07/06 08:29:11;;;;;;;7.80;2.50;;;;;;;27.72;54.42;100679.17;220765;1267;140046;-90
2023/07/06 08:34:12;;;;;;;6.40;2.50;;;;;;;28.22;52.06;100674.00;221399;1268;96449;-90
2023/07/06 08:39:12;;;;;;;4.70;2.10;;;;;;;28.59;49.58;100679.04;220932;1267;140273;-87
2023/07/06 08:44:15;;;;;;;4.70;2.30;;;;;;;29.05;49.72;100678.27;221190;1266;138204;-92
2023/07/06 08:49:29;;;;;;;6.50;2.60;;;;;;;29.49;46.29;100687.05;220633;1267;140264;-92
2023/07/06 08:54:34;;;;;;;69.30;8.00;;;;;;;29.73;44.87;100688.36;221032;1265;138127;-91
2023/07/06 08:59:34;;;;;;;;;;;;;;;29.96;42.83;100689.38;220991;1265;140576;-91
2023/07/06 09:04:37;;;;;;;7.60;2.30;;;;;;;30.17;44.31;100688.48;221430;1267;106943;-92
2023/07/06 09:09:39;;;;;;;9.00;3.30;;;;;;;30.49;42.53;100692.47;220775;1266;139810;-92
2023/07/06 09:14:41;;;;;;;15.60;4.00;;;;;;;30.48;39.58;100691.79;221601;1269;137852;-94
2023/07/06 09:19:42;;;;;;;7.70;2.80;;;;;;;30.40;40.26;100692.73;221614;1266;140081;-93
2023/07/06 09:24:46;;;;;;;5.90;2.50;;;;;;;30.64;41.44;100693.91;222057;1266;138037;-95
2023/07/06 09:30:00;;;;;;;8.90;3.10;;;;;;;31.27;41.88;100688.30;221953;1266;138280;-94
2023/07/06 09:40:28;;;;;;;9.80;2.60;;;;;;;31.60;36.21;100689.27;221608;1264;139867;-90
2023/07/06 09:45:31;;;;;;;8.10;2.60;;;;;;;31.31;37.40;100686.06;221932;1269;137865;-91
2023/07/06 09:50:38;;;;;;;7.40;3.10;;;;;;;31.47;36.38;100694.83;221591;1266;144365;-86
2023/07/06 09:55:39;;;;;;;7.50;2.60;;;;;;;31.34;37.24;100696.20;221612;1268;137957;-88
2023/07/06 10:00:47;;;;;;;5.40;2.60;;;;;;;31.60;36.06;100690.92;221341;1268;140218;-88
2023/07/06 10:06:00;;;;;;;6.70;2.50;;;;;;;31.74;36.50;100690.08;222056;1268;138173;-88
2023/07/06 10:11:06;;;;;;;24.80;5.00;;;;;;;31.86;36.86;100694.76;221669;1268;139861;-91
2023/07/06 10:16:21;;;;;;;4.50;2.20;;;;;;;31.80;37.68;100694.58;221785;1269;106496;-87
2023/07/06 10:21:33;;;;;;;7.80;2.80;;;;;;;31.51;36.32;100700.12;221506;1269;139615;-89
2023/07/06 10:26:37;;;;;;;7.10;3.30;;;;;;;31.23;36.87;100703.77;221838;1268;138122;-88
2023/07/06 10:31:42;;;;;;;6.50;2.90;;;;;;;31.41;36.95;100703.30;221164;1266;140366;-88
2023/07/06 10:36:45;;;;;;;7.70;2.70;;;;;;;31.28;35.09;100703.25;221333;1269;298347;-87
2023/07/06 10:41:49;;;;;;;7.80;2.60;;;;;;;30.96;35.39;100703.02;221460;1266;139006;-87
2023/07/06 10:46:58;;;;;;;17.50;3.20;;;;;;;31.09;34.88;100699.26;221822;1269;97847;-88
2023/07/06 10:52:00;;;;;;;7.80;2.90;;;;;;;30.81;34.15;100697.11;221508;1266;145036;-87
2023/07/06 10:57:04;;;;;;;9.90;3.60;;;;;;;31.00;34.68;100700.14;221886;1266;137958;-87
2023/07/06 11:02:19;;;;;;;7.20;2.80;;;;;;;30.97;33.46;100700.49;221058;1269;140827;-88
2023/07/06 11:07:42;;;;;;;7.70;2.70;;;;;;;30.78;33.76;100699.33;221708;1267;138189;-90
2023/07/06 11:12:55;;;;;;;7.00;2.70;;;;;;;30.64;34.12;100698.45;221524;1266;139777;-89
2023/07/06 11:17:57;;;;;;;5.50;2.40;;;;;;;30.59;34.32;100694.75;222130;1267;138112;-85
2023/07/06 11:23:04;;;;;;;6.20;2.60;;;;;;;30.95;34.77;100688.49;221664;1268;139742;-89
2023/07/06 11:28:07;;;;;;;5.10;2.70;;;;;;;31.49;34.39;100689.30;222065;1267;104198;-89
2023/07/06 11:33:19;;;;;;;6.30;2.60;;;;;;;31.96;34.07;100691.38;221522;1268;138883;-87
2023/07/06 11:38:53;;;;;;;12.10;2.80;;;;;;;32.33;33.83;100691.12;221875;1268;138587;-88
2023/07/06 11:44:13;;;;;;;5.10;2.40;;;;;;;32.36;31.54;100688.46;221667;1269;138208;-89
2023/07/06 11:49:47;;;;;;;9.70;3.10;;;;;;;31.63;33.46;100684.00;221193;1269;140148;-88
2023/07/06 11:55:04;;;;;;;6.80;3.10;;;;;;;31.81;34.94;100694.91;221946;1269;138192;-88
2023/07/06 12:05:33;;;;;;;5.00;2.30;;;;;;;31.54;33.75;100691.58;222118;1268;138043;-88
2023/07/06 12:10:36;;;;;;;5.60;2.60;;;;;;;31.16;34.53;100692.19;221506;1267;144924;-92
2023/07/06 12:15:36;;;;;;;7.50;2.50;;;;;;;31.36;34.20;100693.77;221566;1267;138029;-88
2023/07/06 12:20:37;;;;;;;6.10;2.10;;;;;;;31.09;34.58;100699.56;221203;1267;139820;-90
2023/07/06 12:25:41;;;;;;;8.20;3.00;;;;;;;30.87;35.79;100699.16;221974;1268;138168;-89
2023/07/06 12:30:43;;;;;;;5.60;2.20;;;;;;;30.65;34.86;100691.71;221647;1269;141357;-88
2023/07/06 12:35:44;;;;;;;5.10;2.40;;;;;;;30.29;34.65;100685.67;221907;1267;138160;-86
2023/07/06 12:40:45;;;;;;;4.60;2.10;;;;;;;30.20;35.63;100678.13;221396;1270;141168;-87
2023/07/06 12:45:45;;;;;;;5.70;2.10;;;;;;;30.13;35.68;100680.81;221799;1265;137824;-89
2023/07/06 12:50:49;;;;;;;5.80;2.30;;;;;;;29.70;35.56;100678.63;221143;1266;138538;-95
2023/07/06 12:55:50;;;;;;;4.90;2.10;;;;;;;29.32;34.89;100676.62;221594;1269;138007;-93
2023/07/06 13:00:51;;;;;;;7.30;2.40;;;;;;;29.05;36.70;100678.89;221447;1266;139745;-87
2023/07/06 13:05:54;;;;;;;6.10;2.60;;;;;;;28.90;38.09;100680.23;222143;1267;138509;-88
2023/07/06 13:11:03;;;;;;;6.30;2.40;;;;;;;28.73;36.80;100684.03;221193;1265;140617;-91
2023/07/06 13:16:10;;;;;;;5.10;2.00;;;;;;;28.47;38.13;100683.46;221840;1269;107032;-90
2023/07/06 13:21:17;;;;;;;7.60;2.60;;;;;;;28.16;37.92;100683.33;221174;1269;139969;-89
2023/07/06 13:26:17;;;;;;;9.30;3.10;;;;;;;28.15;38.49;100680.85;221973;1268;138015;-90
2023/07/06 13:31:19;;;;;;;8.30;3.50;;;;;;;28.19;39.11;100674.16;221248;1266;140654;-92
2023/07/06 13:36:20;;;;;;;7.00;2.50;;;;;;;28.30;39.16;100672.63;221805;1267;137943;-88
2023/07/06 13:41:28;;;;;;;6.00;2.70;;;;;;;28.59;38.92;100675.95;221271;1266;140503;-90
2023/07/06 13:46:31;;;;;;;7.70;3.00;;;;;;;28.69;38.61;100673.11;222118;1266;111453;-89
2023/07/06 13:51:31;;;;;;;7.80;2.70;;;;;;;28.87;39.09;100675.25;221360;1266;140243;-88
2023/07/06 13:56:33;;;;;;;5.60;2.50;;;;;;;29.17;38.63;100679.70;222118;1267;138991;-89
2023/07/06 14:01:34;;;;;;;6.00;2.40;;;;;;;29.46;38.51;100679.30;221388;1267;140576;-87
2023/07/06 14:06:34;;;;;;;24.20;5.70;;;;;;;29.51;37.68;100685.44;221781;1269;138653;-88
2023/07/06 14:11:35;;;;;;;7.80;2.00;;;;;;;29.49;37.10;100682.32;221210;1265;141663;-87
2023/07/06 14:16:36;;;;;;;12.30;2.90;;;;;;;29.59;37.35;100682.73;221936;1266;97923;-89
2023/07/06 14:21:37;;;;;;;4.90;2.20;;;;;;;29.44;34.54;100682.27;221381;1266;138954;-88
2023/07/06 14:26:38;;;;;;;5.70;2.60;;;;;;;29.20;36.19;100679.38;221811;1266;137822;-87
2023/07/06 14:31:38;;;;;;;4.20;1.90;;;;;;;29.06;36.76;100682.45;221310;1268;139548;-88
2023/07/06 14:36:39;;;;;;;3.80;1.80;;;;;;;29.03;36.07;100683.00;222035;1267;139107;-86
2023/07/06 14:41:39;;;;;;;8.40;2.90;;;;;;;28.97;36.30;100685.23;221118;1266;141377;-87
2023/07/06 14:46:39;;;;;;;6.20;2.40;;;;;;;28.74;36.82;100688.82;221919;1266;98337;-85
2023/07/06 14:51:40;;;;;;;7.80;2.50;;;;;;;28.64;37.41;100678.77;221375;1266;139481;-83
2023/07/06 14:56:40;;;;;;;8.20;2.70;;;;;;;28.65;37.53;100676.76;221828;1266;138096;-90
2023/07/06 15:01:40;;;;;;;11.30;3.30;;;;;;;28.65;37.50;100675.73;221406;1266;139741;-86
2023/07/06 15:06:41;;;;;;;5.80;2.20;;;;;;;28.73;37.74;100677.70;221788;1266;138762;-88
2023/07/06 15:11:41;;;;;;;5.30;2.20;;;;;;;28.69;37.10;100675.41;221287;1265;140717;-86
2023/07/06 15:16:41;;;;;;;9.30;2.50;;;;;;;28.48;37.59;100673.79;222187;1266;97936;-85
2023/07/06 15:21:42;;;;;;;6.40;2.00;;;;;;;28.42;37.64;100681.17;221431;1266;138506;-87
2023/07/06 15:26:43;;;;;;;13.90;2.70;;;;;;;28.24;37.65;100677.38;221586;1269;137897;-84
2023/07/06 15:31:45;;;;;;;5.40;2.20;;;;;;;28.21;37.07;100677.50;221080;1266;140082;-84
2023/07/06 15:36:46;;;;;;;4.50;2.00;;;;;;;27.99;36.79;100680.90;221588;1266;136839;-85
2023/07/06 15:41:47;;;;;;;6.10;2.10;;;;;;;27.84;36.97;100681.01;221275;1266;141119;-84
2023/07/06 15:46:48;;;;;;;4.10;1.90;;;;;;;27.67;37.92;100676.20;222141;1266;98211;-86
2023/07/06 15:51:55;;;;;;;5.30;2.20;;;;;;;27.60;38.43;100675.83;221471;1268;139507;-85
2023/07/06 15:56:55;;;;;;;6.70;2.40;;;;;;;27.40;38.05;100672.74;222224;1266;138143;-87
2023/07/06 16:01:57;;;;;;;7.10;2.70;;;;;;;27.05;39.01;100675.13;221139;1266;143423;-84
2023/07/06 16:06:57;;;;;;;4.10;2.10;;;;;;;26.81;38.20;100680.38;222086;1265;138875;-86
2023/07/06 16:11:57;;;;;;;4.40;2.10;;;;;;;26.59;39.28;100682.36;221398;1266;140554;-87
2023/07/06 16:16:58;;;;;;;6.80;2.50;;;;;;;26.34;39.30;100675.55;221888;1266;97975;-87
2023/07/06 16:21:58;;;;;;;5.10;2.10;;;;;;;26.09;39.20;100680.81;221220;1266;141994;-88
2023/07/06 16:26:59;;;;;;;4.40;2.00;;;;;;;25.89;39.20;100680.47;221643;1266;138466;-86
2023/07/06 16:31:59;;;;;;;4.90;2.00;;;;;;;25.66;39.96;100688.67;221251;1269;140195;-86
2023/07/06 16:37:00;;;;;;;4.60;1.90;;;;;;;25.40;40.47;100692.52;221785;1268;138973;-84
2023/07/06 16:42:00;;;;;;;3.70;2.10;;;;;;;25.18;40.22;100698.50;221299;1265;141404;-87
2023/07/06 16:47:01;;;;;;;6.70;2.40;;;;;;;25.01;40.88;100697.98;222015;1268;97962;-86
2023/07/06 16:52:01;;;;;;;3.60;1.90;;;;;;;24.83;41.18;100696.74;221261;1266;139552;-86
2023/07/06 16:57:01;;;;;;;5.50;2.00;;;;;;;24.65;42.10;100702.91;221768;1266;138608;-85
2023/07/06 17:02:02;;;;;;;4.30;2.00;;;;;;;24.50;42.85;100714.29;221402;1265;140075;-86
2023/07/06 17:07:02;;;;;;;8.10;2.50;;;;;;;24.35;43.32;100717.39;221953;1266;138241;-86
2023/07/06 17:12:03;;;;;;;3.20;1.70;;;;;;;24.17;44.04;100720.30;221356;1265;139848;-85
2023/07/06 17:17:03;;;;;;;4.90;2.40;;;;;;;24.02;44.92;100727.59;222120;1266;97840;-84
2023/07/06 17:22:04;;;;;;;7.60;2.40;;;;;;;23.91;45.28;100729.61;221469;1265;139268;-85
2023/07/06 17:27:04;;;;;;;3.40;2.00;;;;;;;23.76;45.74;100726.30;221717;1267;138216;-86
2023/07/06 17:32:06;;;;;;;5.70;2.40;;;;;;;23.58;45.87;100731.11;221305;1266;140855;-85
2023/07/06 17:37:06;;;;;;;3.40;1.80;;;;;;;23.37;46.49;100730.90;221853;1266;138170;-85
2023/07/06 17:42:08;;;;;;;4.40;2.20;;;;;;;23.26;47.51;100735.59;221412;1266;141110;-85
2023/07/06 17:47:08;;;;;;;5.10;2.40;;;;;;;23.11;47.66;100737.68;222062;1266;139803;-84
2023/07/06 17:52:09;;;;;;;5.30;2.50;;;;;;;22.92;48.14;100741.63;221476;1266;140439;-83
2023/07/06 17:57:09;;;;;;;6.30;2.50;;;;;;;22.81;48.84;100743.88;221926;1265;136958;-84
2023/07/06 18:02:10;;;;;;;4.80;2.30;;;;;;;22.65;49.29;100744.96;221289;1269;140970;-85
2023/07/06 18:07:10;;;;;;;5.70;2.50;;;;;;;22.52;49.59;100746.59;221787;1266;140053;-85
2023/07/06 18:12:10;;;;;;;5.40;2.30;;;;;;;22.39;49.84;100747.80;221317;1266;141264;-84
2023/07/06 18:17:11;;;;;;;4.80;2.10;;;;;;;22.23;50.19;100746.71;222051;1265;138312;-85
2023/07/06 18:22:11;;;;;;;6.40;2.50;;;;;;;22.08;50.84;100753.43;221574;1265;140014;-85
2023/07/06 18:27:12;;;;;;;5.40;2.60;;;;;;;21.94;51.52;100757.36;221789;1266;138958;-82
2023/07/06 18:32:12;;;;;;;7.90;2.40;;;;;;;21.79;51.82;100757.69;221239;1265;141183;-84
2023/07/06 18:37:12;;;;;;;4.10;1.90;;;;;;;21.59;52.39;100765.09;221851;1270;138197;-84
2023/07/06 18:42:13;;;;;;;4.90;2.20;;;;;;;21.43;52.67;100771.33;221308;1266;141296;-85
2023/07/06 18:47:13;;;;;;;9.50;2.40;;;;;;;21.25;52.34;100777.50;221832;1266;138183;-85
2023/07/06 18:52:14;;;;;;;7.20;2.70;;;;;;;21.08;52.83;100781.82;221508;1268;139314;-85
2023/07/06 18:57:17;;;;;;;6.50;2.30;;;;;;;20.93;53.56;100789.77;221989;1268;138001;-85
2023/07/06 19:02:18;;;;;;;15.80;2.90;;;;;;;20.74;54.11;100792.33;221422;1268;141929;-84
2023/07/06 19:07:18;;;;;;;3.90;1.90;;;;;;;20.52;54.79;100803.32;222060;1266;138558;-87
2023/07/06 19:12:19;;;;;;;8.30;3.40;;;;;;;20.36;55.12;100806.81;221530;1266;142564;-89
2023/07/06 19:17:19;;;;;;;6.80;2.90;;;;;;;20.14;56.04;100818.88;221661;1269;138164;-87
2023/07/06 19:22:19;;;;;;;5.20;2.40;;;;;;;19.89;57.42;100822.27;221421;1265;139995;-87
2023/07/06 19:27:20;;;;;;;5.70;2.90;;;;;;;19.67;58.15;100827.57;221841;1266;137832;-85
2023/07/06 19:32:20;;;;;;;8.30;3.30;;;;;;;19.47;58.72;100835.23;221261;1266;139250;-86
2023/07/06 19:37:20;;;;;;;5.00;2.50;;;;;;;19.28;59.67;100839.48;221759;1265;138207;-85
2023/07/06 19:42:21;;;;;;;8.10;3.10;;;;;;;19.09;60.26;100843.94;221522;1265;140371;-85
2023/07/06 19:47:21;;;;;;;7.80;3.00;;;;;;;18.90;60.70;100846.88;221770;1265;138140;-85
2023/07/06 19:52:22;;;;;;;5.10;2.40;;;;;;;18.71;61.32;100856.66;221407;1266;140148;-85
2023/07/06 19:57:22;;;;;;;5.00;2.40;;;;;;;18.52;62.02;100864.27;222124;1266;138067;-86
2023/07/06 20:02:23;;;;;;;6.40;2.50;;;;;;;18.37;62.98;100857.40;221622;1266;140028;-86
2023/07/06 20:07:23;;;;;;;5.60;2.70;;;;;;;18.20;63.69;100866.05;221865;1266;138025;-86
2023/07/06 20:12:24;;;;;;;5.80;2.30;;;;;;;18.05;63.48;100873.48;221203;1266;140339;-86
2023/07/06 20:17:25;;;;;;;8.10;3.10;;;;;;;17.87;64.41;100874.71;221847;1266;138177;-85
2023/07/06 20:22:25;;;;;;;6.10;2.80;;;;;;;17.73;64.73;100877.04;221439;1266;139314;-85
2023/07/06 20:27:26;;;;;;;6.60;2.50;;;;;;;17.62;65.73;100876.36;221967;1266;138002;-85
2023/07/06 20:32:26;;;;;;;5.60;2.30;;;;;;;17.46;65.84;100881.04;221302;1266;140018;-87
2023/07/06 20:37:27;;;;;;;7.10;3.30;;;;;;;17.30;66.26;100885.31;221948;1266;138002;-87
2023/07/06 20:42:28;;;;;;;7.50;3.70;;;;;;;17.17;66.84;100894.01;221407;1266;139451;-85
2023/07/06 20:47:29;;;;;;;7.00;3.40;;;;;;;17.03;67.63;100895.80;222134;1268;139424;-85
2023/07/06 20:52:32;;;;;;;10.80;3.70;;;;;;;16.91;68.29;100900.65;221229;1266;139244;-86
2023/07/06 20:57:35;;;;;;;9.30;3.80;;;;;;;16.77;69.31;100901.70;222046;1264;138534;-86
2023/07/06 21:02:36;;;;;;;8.00;3.40;;;;;;;16.63;70.09;100906.30;221298;1266;140874;-86
2023/07/06 21:07:36;;;;;;;7.10;3.60;;;;;;;16.52;70.65;100906.45;221811;1266;138163;-85
2023/07/06 21:12:37;;;;;;;8.50;3.50;;;;;;;16.40;71.48;100914.20;221225;1266;140669;-86
2023/07/06 21:17:37;;;;;;;9.40;3.80;;;;;;;16.27;72.07;100919.07;221747;1266;138757;-86
2023/07/06 21:22:38;;;;;;;8.50;3.50;;;;;;;16.16;72.75;100923.16;221652;1266;140463;-84
2023/07/06 21:27:38;;;;;;;10.20;3.90;;;;;;;16.06;73.32;100931.53;222197;1265;138657;-86
2023/07/06 21:32:38;;;;;;;8.70;3.60;;;;;;;15.96;74.07;100941.33;221388;1266;139988;-85
2023/07/06 21:37:39;;;;;;;7.70;3.70;;;;;;;15.85;74.58;100939.52;221745;1266;138884;-87
2023/07/06 21:42:39;;;;;;;7.50;3.70;;;;;;;15.74;74.96;100943.59;221426;1266;140150;-87
2023/07/06 21:47:40;;;;;;;8.90;3.90;;;;;;;15.64;75.62;100952.88;221772;1266;139252;-86
2023/07/06 21:52:40;;;;;;;8.90;4.10;;;;;;;15.54;76.23;100952.65;221181;1266;141562;-86
2023/07/06 21:57:40;;;;;;;8.80;4.00;;;;;;;15.44;76.64;100954.88;222094;1265;139871;-88
2023/07/06 22:02:44;;;;;;;9.30;4.00;;;;;;;15.34;77.12;100959.08;221315;1266;140794;-87
2023/07/06 22:07:46;;;;;;;9.90;3.80;;;;;;;15.25;77.67;100965.45;221754;1266;138901;-88
2023/07/06 22:12:47;;;;;;;7.40;3.60;;;;;;;15.16;78.09;100966.80;221404;1266;141009;-86
2023/07/06 22:17:47;;;;;;;8.20;3.60;;;;;;;15.08;78.41;100968.93;222273;1266;139265;-87
2023/07/06 22:22:48;;;;;;;5.80;3.50;;;;;;;15.01;79.01;100966.39;221779;1268;141047;-86
2023/07/06 22:27:48;;;;;;;8.10;3.60;;;;;;;14.93;79.08;100970.96;222048;1264;138565;-86
2023/07/06 22:32:49;;;;;;;6.00;3.40;;;;;;;14.84;79.68;100979.89;221695;1265;140325;-89
2023/07/06 22:37:50;;;;;;;7.20;3.30;;;;;;;14.76;80.24;100977.89;221494;1265;275942;-89
2023/07/06 22:42:50;;;;;;;8.70;4.10;;;;;;;14.69;80.74;100981.60;221603;1265;140595;-89
2023/07/06 22:47:50;;;;;;;7.70;3.70;;;;;;;14.61;81.10;100984.73;221932;1266;139629;-92
2023/07/06 22:52:58;;;;;;;7.70;3.10;;;;;;;14.55;81.01;100996.03;221529;1266;140749;-90
2023/07/06 22:58:00;;;;;;;7.60;3.80;;;;;;;14.47;81.67;100993.46;221576;1266;138787;-89